Time;durP1;ratioP1;P1;durP2;ratioP2;P2;SDS_P1;SDS_P2;PMS_P1;PMS_P2;Temp;Humidity;BMP_temperature;BMP_pressure;BME280_temperature;BME280_humidity;BME280_pressure;Samples;Min_cycle;Max_cycle;Signal;HPM_P1;HPM_P2
2024/01/31 00:02:04;;;;;;;;;;;7.60;100.00;;;;;;5037551;28;19928;-68
2024/01/31 00:04:31;;;;;;;;;;;7.50;100.00;;;;;;5039959;28;19929;-68
2024/01/31 00:06:58;;;;;;;;;;;7.50;100.00;;;;;;5038481;28;19932;-68
2024/01/31 00:09:25;;;;;;;;;;;7.50;100.00;;;;;;5043437;28;19928;-69
2024/01/31 00:11:51;;;;;;;;;;;7.50;100.00;;;;;;5042693;28;19990;-68
2024/01/31 00:14:18;;;;;;;;;;;7.50;100.00;;;;;;5043541;28;20011;-69
2024/01/31 00:16:45;;;;;;;;;;;7.40;100.00;;;;;;5041905;28;19936;-69
2024/01/31 00:19:12;;;;;;;;;;;7.40;100.00;;;;;;5040953;28;19975;-69
2024/01/31 00:21:39;;;;;;;;;;;7.40;100.00;;;;;;5043881;28;20665;-68
2024/01/31 00:24:06;;;;;;;;;;;7.40;100.00;;;;;;5038981;28;19932;-68
2024/01/31 00:26:33;;;;;;;;;;;7.40;100.00;;;;;;5042916;28;19928;-69
2024/01/31 00:29:00;;;;;;;;;;;7.40;100.00;;;;;;5037484;28;19929;-69
2024/01/31 00:31:26;;;;;;;;;;;7.30;100.00;;;;;;5043610;28;20443;-69
2024/01/31 00:33:54;;;;;;;;;;;7.30;100.00;;;;;;5041872;28;20012;-68
2024/01/31 00:36:21;;;;;;;;;;;7.30;100.00;;;;;;5046793;28;19932;-69
2024/01/31 00:38:48;;;;;;;;;;;7.30;100.00;;;;;;5042521;28;19925;-68
2024/01/31 00:41:15;;;;;;;;;;;7.30;100.00;;;;;;5044907;28;19928;-69
2024/01/31 00:43:42;;;;;;;;;;;7.30;100.00;;;;;;5044754;28;19947;-69
2024/01/31 00:46:09;;;;;;;;;;;7.30;100.00;;;;;;5044621;28;20019;-68
2024/01/31 00:48:35;;;;;;;;;;;7.20;100.00;;;;;;5048449;28;19928;-69
2024/01/31 00:51:07;;;;;;;;;;;7.30;100.00;;;;;;5046916;28;20423;-69
2024/01/31 00:53:35;;;;;;;;;;;7.20;100.00;;;;;;5044088;28;19976;-68
2024/01/31 00:56:02;;;;;;;;;;;7.20;100.00;;;;;;5047146;28;19928;-69
2024/01/31 00:58:29;;;;;;;;;;;7.20;100.00;;;;;;5041750;28;19929;-69
2024/01/31 01:00:55;;;;;;;;;;;7.20;100.00;;;;;;5051270;28;19932;-68
2024/01/31 01:03:22;;;;;;;;;;;7.20;100.00;;;;;;5042929;28;20039;-68
2024/01/31 01:05:49;;;;;;;;;;;7.10;100.00;;;;;;5045619;28;19929;-69
2024/01/31 01:08:16;;;;;;;;;;;7.10;100.00;;;;;;5046853;28;19929;-69
2024/01/31 01:10:42;;;;;;;;;;;7.00;100.00;;;;;;5046130;28;19925;-69
2024/01/31 01:13:10;;;;;;;;;;;7.00;100.00;;;;;;5078302;28;19932;-68
2024/01/31 01:15:36;;;;;;;;;;;7.00;100.00;;;;;;5047580;28;20016;-69
2024/01/31 01:18:03;;;;;;;;;;;6.90;100.00;;;;;;5044812;28;19939;-68
2024/01/31 01:20:30;;;;;;;;;;;6.90;100.00;;;;;;5047217;28;19932;-68
2024/01/31 01:22:57;;;;;;;;;;;6.90;100.00;;;;;;5047003;28;19990;-68
2024/01/31 01:25:25;;;;;;;;;;;6.80;100.00;;;;;;5047762;28;19928;-68
2024/01/31 01:27:52;;;;;;;;;;;6.80;100.00;;;;;;5047262;28;19975;-68
2024/01/31 01:30:19;;;;;;;;;;;6.80;100.00;;;;;;5044166;28;19933;-69
2024/01/31 01:32:46;;;;;;;;;;;6.70;100.00;;;;;;5042306;28;19932;-69
2024/01/31 01:35:13;;;;;;;;;;;6.70;100.00;;;;;;5047455;28;19940;-69
2024/01/31 01:37:40;;;;;;;;;;;6.70;100.00;;;;;;5039882;28;19928;-69
2024/01/31 01:40:08;;;;;;;;;;;6.60;100.00;;;;;;5041772;28;19936;-69
2024/01/31 01:42:39;;;;;;;;;;;6.60;100.00;;;;;;5064128;28;20561;-68
2024/01/31 01:45:06;;;;;;;;;;;6.60;100.00;;;;;;5040603;28;19960;-68
2024/01/31 01:47:38;;;;;;;;;;;6.50;100.00;;;;;;5042674;28;19928;-68
2024/01/31 01:50:07;;;;;;;;;;;6.50;100.00;;;;;;5040654;28;20064;-72
2024/01/31 01:52:34;;;;;;;;;;;6.40;100.00;;;;;;5047078;28;20007;-72
2024/01/31 01:55:04;;;;;;;;;;;6.40;100.00;;;;;;5045094;28;19929;-72
2024/01/31 01:57:31;;;;;;;;;;;6.40;100.00;;;;;;5046771;28;19928;-72
2024/01/31 01:59:58;;;;;;;;;;;6.30;100.00;;;;;;5046248;28;19991;-72
2024/01/31 02:02:26;;;;;;;;;;;6.30;100.00;;;;;;5046798;28;19940;-72
2024/01/31 02:04:53;;;;;;;;;;;6.20;100.00;;;;;;5040441;28;20412;-72
2024/01/31 02:07:25;;;;;;;;;;;6.20;100.00;;;;;;5041016;28;20010;-72
2024/01/31 02:09:53;;;;;;;;;;;6.20;100.00;;;;;;5045186;28;20324;-72
2024/01/31 02:12:20;;;;;;;;;;;6.20;100.00;;;;;;5046950;28;20340;-72
2024/01/31 02:14:52;;;;;;;;;;;6.10;100.00;;;;;;5044304;28;19983;-72
2024/01/31 02:17:18;;;;;;;;;;;6.10;100.00;;;;;;5045923;28;20556;-72
2024/01/31 02:19:45;;;;;;;;;;;6.10;100.00;;;;;;5068566;28;20008;-72
2024/01/31 02:22:21;;;;;;;;;;;6.10;100.00;;;;;;5045798;28;20377;-72
2024/01/31 02:24:48;;;;;;;;;;;6.00;100.00;;;;;;5045757;28;19929;-72
2024/01/31 02:27:14;;;;;;;;;;;6.00;100.00;;;;;;5044153;28;20517;-72
2024/01/31 02:29:41;;;;;;;;;;;5.90;100.00;;;;;;5045409;28;19968;-72
2024/01/31 02:32:08;;;;;;;;;;;5.90;100.00;;;;;;5043000;28;19933;-72
2024/01/31 02:34:35;;;;;;;;;;;5.90;100.00;;;;;;5045198;28;19928;-72
2024/01/31 02:37:02;;;;;;;;;;;5.80;100.00;;;;;;5040578;28;20845;-72
2024/01/31 02:39:31;;;;;;;;;;;5.80;100.00;;;;;;5043112;28;20024;-72
2024/01/31 02:41:58;;;;;;;;;;;5.80;100.00;;;;;;5039504;28;19929;-72
2024/01/31 02:44:25;;;;;;;;;;;5.80;100.00;;;;;;5042276;28;20701;-72
2024/01/31 02:46:52;;;;;;;;;;;5.80;100.00;;;;;;5045308;28;20038;-72
2024/01/31 02:49:18;;;;;;;;;;;5.80;100.00;;;;;;5042246;28;19986;-72
2024/01/31 02:51:46;;;;;;;;;;;5.70;100.00;;;;;;5043050;28;20002;-72
2024/01/31 02:54:12;;;;;;;;;;;5.70;100.00;;;;;;5043904;28;20504;-72
2024/01/31 02:56:39;;;;;;;;;;;5.70;100.00;;;;;;5042800;28;19937;-72
2024/01/31 02:59:06;;;;;;;;;;;5.70;100.00;;;;;;5037869;28;19972;-72
2024/01/31 03:01:33;;;;;;;;;;;5.70;100.00;;;;;;5044414;28;19982;-72
2024/01/31 03:04:00;;;;;;;;;;;5.70;100.00;;;;;;5043940;28;20388;-72
2024/01/31 03:06:27;;;;;;;;;;;5.60;100.00;;;;;;5043749;28;20047;-72
2024/01/31 03:08:53;;;;;;;;;;;5.60;100.00;;;;;;5045677;28;19929;-72
2024/01/31 03:11:20;;;;;;;;;;;5.50;100.00;;;;;;5044457;28;20098;-72
2024/01/31 03:13:47;;;;;;;;;;;5.50;100.00;;;;;;5042121;28;20339;-73
2024/01/31 03:16:14;;;;;;;;;;;5.40;100.00;;;;;;5043931;28;19933;-72
2024/01/31 03:18:40;;;;;;;;;;;5.40;100.00;;;;;;5045444;28;19929;-72
2024/01/31 03:21:07;;;;;;;;;;;5.40;100.00;;;;;;5043967;28;19928;-72
2024/01/31 03:23:34;;;;;;;;;;;5.30;100.00;;;;;;5045309;28;19932;-72
2024/01/31 03:26:01;;;;;;;;;;;5.30;100.00;;;;;;5044398;28;19964;-72
2024/01/31 03:28:27;;;;;;;;;;;5.20;100.00;;;;;;5041071;28;19994;-72
2024/01/31 03:30:54;;;;;;;;;;;5.20;100.00;;;;;;5076454;28;19929;-72
2024/01/31 03:33:21;;;;;;;;;;;5.20;100.00;;;;;;5045188;28;20025;-72
2024/01/31 03:35:48;;;;;;;;;;;5.10;100.00;;;;;;5044749;28;19998;-72
2024/01/31 03:38:15;;;;;;;;;;;5.10;100.00;;;;;;5044070;28;19929;-72
2024/01/31 03:40:42;;;;;;;;;;;5.10;100.00;;;;;;5044835;28;19929;-72
2024/01/31 03:43:09;;;;;;;;;;;5.10;100.00;;;;;;5043327;28;19932;-72
2024/01/31 03:45:36;;;;;;;;;;;5.00;100.00;;;;;;5040713;28;19936;-72
2024/01/31 03:48:02;;;;;;;;;;;5.00;100.00;;;;;;5043913;28;19929;-72
2024/01/31 03:50:29;;;;;;;;;;;5.00;100.00;;;;;;5044662;28;20331;-72
2024/01/31 03:52:56;;;;;;;;;;;5.00;100.00;;;;;;5044901;28;20325;-72
2024/01/31 03:55:24;;;;;;;;;;;5.00;100.00;;;;;;5041647;28;20006;-72
2024/01/31 03:57:50;;;;;;;;;;;5.00;100.00;;;;;;5040730;28;19949;-72
2024/01/31 04:00:17;;;;;;;;;;;4.90;100.00;;;;;;5042736;28;20015;-72
2024/01/31 04:02:44;;;;;;;;;;;4.90;100.00;;;;;;5043942;28;20009;-72
2024/01/31 04:05:11;;;;;;;;;;;4.90;100.00;;;;;;5032512;28;19986;-72
2024/01/31 04:07:38;;;;;;;;;;;4.90;100.00;;;;;;5040995;28;20027;-72
2024/01/31 04:10:10;;;;;;;;;;;4.90;100.00;;;;;;5038034;28;19935;-72
2024/01/31 04:12:37;;;;;;;;;;;4.90;100.00;;;;;;5043996;28;19936;-72
2024/01/31 04:15:04;;;;;;;;;;;4.90;100.00;;;;;;5044105;28;19937;-72
2024/01/31 04:17:31;;;;;;;;;;;4.90;100.00;;;;;;5042794;28;20738;-72
2024/01/31 04:19:58;;;;;;;;;;;4.90;100.00;;;;;;5041917;28;19960;-72
2024/01/31 04:22:24;;;;;;;;;;;4.90;100.00;;;;;;5044667;28;19928;-71
2024/01/31 04:24:52;;;;;;;;;;;4.90;100.00;;;;;;5037891;28;19929;-72
2024/01/31 04:27:19;;;;;;;;;;;4.90;100.00;;;;;;5041229;28;20025;-72
2024/01/31 04:29:45;;;;;;;;;;;4.90;100.00;;;;;;5040620;28;19925;-71
2024/01/31 04:32:12;;;;;;;;;;;4.90;100.00;;;;;;5044267;28;20000;-72
2024/01/31 04:34:39;;;;;;;;;;;4.90;100.00;;;;;;5042799;28;20456;-71
2024/01/31 04:37:06;;;;;;;;;;;4.80;100.00;;;;;;5038468;28;19974;-71
2024/01/31 04:39:35;;;;;;;;;;;4.90;100.00;;;;;;5041676;28;19928;-71
2024/01/31 04:42:01;;;;;;;;;;;4.80;100.00;;;;;;5038039;28;20038;-72
2024/01/31 04:44:28;;;;;;;;;;;4.80;100.00;;;;;;5067848;28;19983;-71
2024/01/31 04:46:55;;;;;;;;;;;4.80;100.00;;;;;;5044100;28;19940;-71
2024/01/31 04:49:22;;;;;;;;;;;4.80;100.00;;;;;;5044580;28;20318;-70
2024/01/31 04:51:49;;;;;;;;;;;4.80;100.00;;;;;;5040964;28;19929;-70
2024/01/31 04:54:16;;;;;;;;;;;4.80;100.00;;;;;;5044747;28;19969;-71
2024/01/31 04:56:43;;;;;;;;;;;4.80;100.00;;;;;;5043803;28;20682;-71
2024/01/31 04:59:10;;;;;;;;;;;4.80;100.00;;;;;;5043230;28;19964;-71
2024/01/31 05:01:37;;;;;;;;;;;4.80;100.00;;;;;;5042400;28;19933;-71
2024/01/31 05:04:04;;;;;;;;;;;4.80;100.00;;;;;;5043169;28;19996;-71
2024/01/31 05:06:31;;;;;;;;;;;4.80;100.00;;;;;;5041007;28;19929;-71
2024/01/31 05:08:58;;;;;;;;;;;4.80;100.00;;;;;;5043721;28;19932;-71
2024/01/31 05:11:25;;;;;;;;;;;4.80;100.00;;;;;;5035777;28;19972;-71
2024/01/31 05:13:51;;;;;;;;;;;4.80;100.00;;;;;;5041752;28;20517;-71
2024/01/31 05:16:18;;;;;;;;;;;4.70;100.00;;;;;;5046186;28;19933;-71
2024/01/31 05:18:45;;;;;;;;;;;4.80;100.00;;;;;;5046176;28;19928;-71
2024/01/31 05:21:12;;;;;;;;;;;4.80;100.00;;;;;;5047903;28;19956;-71
2024/01/31 05:23:39;;;;;;;;;;;4.80;100.00;;;;;;5046956;28;19981;-71
2024/01/31 05:26:09;;;;;;;;;;;4.70;100.00;;;;;;5046408;28;20431;-71
2024/01/31 05:28:36;;;;;;;;;;;4.70;100.00;;;;;;5047440;28;19929;-70
2024/01/31 05:31:03;;;;;;;;;;;4.70;100.00;;;;;;5047355;28;19952;-70
2024/01/31 05:33:30;;;;;;;;;;;4.70;100.00;;;;;;5047725;28;20059;-71
2024/01/31 05:35:59;;;;;;;;;;;4.70;100.00;;;;;;5077541;28;19928;-71
2024/01/31 05:38:26;;;;;;;;;;;4.70;100.00;;;;;;5045512;28;20044;-71
2024/01/31 05:40:53;;;;;;;;;;;4.70;100.00;;;;;;5045340;28;19932;-71
2024/01/31 05:43:19;;;;;;;;;;;4.70;100.00;;;;;;5047651;28;20341;-71
2024/01/31 05:45:46;;;;;;;;;;;4.60;100.00;;;;;;5045632;28;19929;-71
2024/01/31 05:48:14;;;;;;;;;;;4.60;100.00;;;;;;5044705;28;19932;-71
2024/01/31 05:50:41;;;;;;;;;;;4.60;100.00;;;;;;5046553;28;19933;-71
2024/01/31 05:53:08;;;;;;;;;;;4.60;100.00;;;;;;5047206;28;19925;-71
2024/01/31 05:55:35;;;;;;;;;;;4.60;100.00;;;;;;5045222;28;19935;-71
2024/01/31 05:58:02;;;;;;;;;;;4.60;100.00;;;;;;5045358;28;19964;-71
2024/01/31 06:00:29;;;;;;;;;;;4.50;100.00;;;;;;5046891;28;19928;-72
2024/01/31 06:02:56;;;;;;;;;;;4.50;100.00;;;;;;5046529;28;19928;-71
2024/01/31 06:05:26;;;;;;;;;;;4.50;100.00;;;;;;5026342;28;20605;-71
2024/01/31 06:07:54;;;;;;;;;;;4.50;100.00;;;;;;5046659;28;19929;-71
2024/01/31 06:10:20;;;;;;;;;;;4.40;100.00;;;;;;5046698;28;19929;-71
2024/01/31 06:12:47;;;;;;;;;;;4.40;100.00;;;;;;5047141;28;19928;-70
2024/01/31 06:15:14;;;;;;;;;;;4.40;100.00;;;;;;5046592;28;19972;-70
2024/01/31 06:17:41;;;;;;;;;;;4.30;100.00;;;;;;5045074;28;19968;-72
2024/01/31 06:20:09;;;;;;;;;;;4.30;100.00;;;;;;5043369;28;19931;-69
2024/01/31 06:22:36;;;;;;;;;;;4.30;100.00;;;;;;5047109;28;19932;-71
2024/01/31 06:25:03;;;;;;;;;;;4.30;100.00;;;;;;5046813;28;20021;-73
2024/01/31 06:27:30;;;;;;;;;;;4.20;100.00;;;;;;5045476;28;20554;-72
2024/01/31 06:29:59;;;;;;;;;;;4.20;100.00;;;;;;5046314;28;19929;-73
2024/01/31 06:32:32;;;;;;;;;;;4.10;100.00;;;;;;5041913;28;20476;-67
2024/01/31 06:34:59;;;;;;;;;;;4.10;100.00;;;;;;5045307;28;19928;-67
2024/01/31 06:37:26;;;;;;;;;;;4.10;100.00;;;;;;5040212;28;19929;-69
2024/01/31 06:39:54;;;;;;;;;;;4.10;100.00;;;;;;5042834;28;19948;-67
2024/01/31 06:42:21;;;;;;;;;;;4.10;100.00;;;;;;5044746;28;19928;-67
2024/01/31 06:44:48;;;;;;;;;;;4.10;100.00;;;;;;5074128;28;19925;-67
2024/01/31 06:47:15;;;;;;;;;;;4.00;100.00;;;;;;5044214;28;19935;-68
2024/01/31 06:49:42;;;;;;;;;;;4.00;100.00;;;;;;5043023;28;20002;-68
2024/01/31 06:52:10;;;;;;;;;;;4.00;100.00;;;;;;5044176;28;19983;-67
2024/01/31 06:54:37;;;;;;;;;;;4.00;100.00;;;;;;5044983;28;19972;-67
2024/01/31 06:57:04;;;;;;;;;;;4.00;100.00;;;;;;5043070;28;19929;-67
2024/01/31 06:59:31;;;;;;;;;;;4.00;100.00;;;;;;5044979;28;20044;-67
2024/01/31 07:01:58;;;;;;;;;;;4.00;100.00;;;;;;5043096;28;20392;-68
2024/01/31 07:04:25;;;;;;;;;;;4.00;100.00;;;;;;5044720;28;19936;-67
2024/01/31 07:06:52;;;;;;;;;;;3.90;100.00;;;;;;5045334;28;20038;-67
2024/01/31 07:09:19;;;;;;;;;;;3.90;100.00;;;;;;5043485;28;19928;-68
2024/01/31 07:11:46;;;;;;;;;;;3.90;100.00;;;;;;5045502;28;19928;-67
2024/01/31 07:14:13;;;;;;;;;;;3.90;100.00;;;;;;5045661;28;20389;-67
2024/01/31 07:16:39;;;;;;;;;;;3.80;100.00;;;;;;5044073;28;20495;-68
2024/01/31 07:19:06;;;;;;;;;;;3.80;100.00;;;;;;5044932;28;19954;-68
2024/01/31 07:21:34;;;;;;;;;;;3.80;100.00;;;;;;5045520;28;19929;-68
2024/01/31 07:24:00;;;;;;;;;;;3.80;100.00;;;;;;5045039;28;20568;-68
2024/01/31 07:26:41;;;;;;;;;;;3.80;100.00;;;;;;5044570;28;19929;-68
2024/01/31 07:29:10;;;;;;;;;;;3.80;100.00;;;;;;5044048;28;19929;-68
2024/01/31 07:31:36;;;;;;;;;;;3.70;100.00;;;;;;5045323;28;19995;-68
2024/01/31 07:34:03;;;;;;;;;;;3.70;100.00;;;;;;5045168;28;19928;-68
2024/01/31 07:36:30;;;;;;;;;;;3.70;100.00;;;;;;5044071;28;20383;-68
2024/01/31 07:38:57;;;;;;;;;;;3.70;100.00;;;;;;5045131;28;19935;-68
2024/01/31 07:41:24;;;;;;;;;;;3.70;100.00;;;;;;5044002;28;20043;-68
2024/01/31 07:43:51;;;;;;;;;;;3.70;100.00;;;;;;5044791;28;19929;-68
2024/01/31 07:46:18;;;;;;;;;;;3.70;100.00;;;;;;5044329;28;20301;-68
2024/01/31 07:48:45;;;;;;;;;;;3.70;100.00;;;;;;5044877;28;19929;-68
2024/01/31 07:51:12;;;;;;;;;;;3.70;100.00;;;;;;5044858;28;19933;-68
2024/01/31 07:53:39;;;;;;;;;;;3.80;100.00;;;;;;5045081;28;20406;-68
2024/01/31 07:56:06;;;;;;;;;;;3.80;100.00;;;;;;5045319;28;19936;-68
2024/01/31 07:58:33;;;;;;;;;;;3.80;100.00;;;;;;5043183;28;20300;-68
2024/01/31 08:01:01;;;;;;;;;;;3.80;100.00;;;;;;5042933;28;19936;-68
2024/01/31 08:03:28;;;;;;;;;;;3.90;100.00;;;;;;5044618;28;19925;-68
2024/01/31 08:05:55;;;;;;;;;;;3.90;100.00;;;;;;5044827;28;20576;-68
2024/01/31 08:08:21;;;;;;;;;;;3.90;100.00;;;;;;5043375;28;19929;-68
2024/01/31 08:10:48;;;;;;;;;;;4.00;100.00;;;;;;5043534;28;19932;-68
2024/01/31 08:13:15;;;;;;;;;;;4.00;100.00;;;;;;5044064;28;20544;-68
2024/01/31 08:15:42;;;;;;;;;;;4.10;100.00;;;;;;5045037;28;19929;-68
2024/01/31 08:18:09;;;;;;;;;;;4.00;100.00;;;;;;5036250;28;19928;-68
2024/01/31 08:20:36;;;;;;;;;;;4.10;100.00;;;;;;5043509;28;19929;-68
2024/01/31 08:23:03;;;;;;;;;;;4.10;100.00;;;;;;5044833;28;19933;-68
2024/01/31 08:25:30;;;;;;;;;;;4.10;100.00;;;;;;5043022;28;19929;-67
2024/01/31 08:27:57;;;;;;;;;;;4.10;100.00;;;;;;5036877;28;19933;-68
2024/01/31 08:30:24;;;;;;;;;;;4.10;100.00;;;;;;5072248;28;19994;-68
2024/01/31 08:32:51;;;;;;;;;;;4.20;100.00;;;;;;5043844;28;19933;-68
2024/01/31 08:35:18;;;;;;;;;;;4.20;100.00;;;;;;5042295;28;19945;-68
2024/01/31 08:37:45;;;;;;;;;;;4.20;100.00;;;;;;5041938;28;19929;-67
2024/01/31 08:40:12;;;;;;;;;;;4.30;100.00;;;;;;5039532;28;19928;-68
2024/01/31 08:42:41;;;;;;;;;;;4.40;100.00;;;;;;5044603;28;20024;-68
2024/01/31 08:45:09;;;;;;;;;;;4.40;100.00;;;;;;5038026;28;19964;-67
2024/01/31 08:47:36;;;;;;;;;;;4.50;100.00;;;;;;5042756;28;19951;-67
2024/01/31 08:50:03;;;;;;;;;;;4.50;100.00;;;;;;5043195;28;19963;-67
2024/01/31 08:52:30;;;;;;;;;;;4.60;100.00;;;;;;5048004;28;19929;-68
2024/01/31 08:54:57;;;;;;;;;;;4.60;100.00;;;;;;5047802;28;19928;-68
2024/01/31 08:57:24;;;;;;;;;;;4.70;100.00;;;;;;5047760;28;20385;-68
2024/01/31 08:59:52;;;;;;;;;;;4.80;100.00;;;;;;5047847;28;20043;-68
2024/01/31 09:02:19;;;;;;;;;;;4.80;100.00;;;;;;5050405;28;19935;-68
2024/01/31 09:04:46;;;;;;;;;;;4.80;100.00;;;;;;5047410;28;20658;-68
2024/01/31 09:07:13;;;;;;;;;;;4.80;100.00;;;;;;5047890;28;20416;-67
2024/01/31 09:09:40;;;;;;;;;;;4.90;100.00;;;;;;5047852;28;19937;-67
2024/01/31 09:12:07;;;;;;;;;;;4.90;100.00;;;;;;5047746;28;19982;-67
2024/01/31 09:14:34;;;;;;;;;;;5.00;100.00;;;;;;5047686;28;19940;-67
2024/01/31 09:17:00;;;;;;;;;;;5.00;100.00;;;;;;5045680;28;20034;-67
2024/01/31 09:19:28;;;;;;;;;;;5.00;100.00;;;;;;5047553;28;19929;-67
2024/01/31 09:21:55;;;;;;;;;;;5.00;100.00;;;;;;5046077;28;20040;-67
2024/01/31 09:24:22;;;;;;;;;;;5.00;100.00;;;;;;5047307;28;20002;-67
2024/01/31 09:26:48;;;;;;;;;;;5.10;100.00;;;;;;5047171;28;19924;-67
2024/01/31 09:29:15;;;;;;;;;;;5.10;100.00;;;;;;5045720;28;19933;-68
2024/01/31 09:31:42;;;;;;;;;;;5.10;100.00;;;;;;5047179;28;19929;-67
2024/01/31 09:34:09;;;;;;;;;;;5.10;100.00;;;;;;5044945;28;20046;-67
2024/01/31 09:36:36;;;;;;;;;;;5.20;100.00;;;;;;5047070;28;19928;-67
2024/01/31 09:39:03;;;;;;;;;;;5.20;100.00;;;;;;5045871;28;19924;-67
2024/01/31 09:41:30;;;;;;;;;;;5.20;100.00;;;;;;5047278;28;19935;-67
2024/01/31 09:43:57;;;;;;;;;;;5.30;100.00;;;;;;5046676;28;20026;-67
2024/01/31 09:46:24;;;;;;;;;;;5.40;100.00;;;;;;5045843;28;19940;-67
2024/01/31 09:48:51;;;;;;;;;;;5.40;100.00;;;;;;5075143;28;19983;-67
2024/01/31 09:51:19;;;;;;;;;;;5.40;100.00;;;;;;5046754;28;19968;-68
2024/01/31 09:53:48;;;;;;;;;;;5.40;100.00;;;;;;5076154;28;19928;-68
2024/01/31 09:56:16;;;;;;;;;;;5.50;100.00;;;;;;5045215;28;19937;-68
2024/01/31 09:58:43;;;;;;;;;;;5.50;100.00;;;;;;5043317;28;20385;-68
2024/01/31 10:01:10;;;;;;;;;;;5.50;100.00;;;;;;5058772;28;19933;-68
2024/01/31 10:03:51;;;;;;;;;;;5.40;100.00;;;;;;5043202;28;19928;-68
2024/01/31 10:06:21;;;;;;;;;;;5.60;100.00;;;;;;5046608;28;19924;-67
2024/01/31 10:08:48;;;;;;;;;;;5.60;100.00;;;;;;5044053;28;19929;-67
2024/01/31 10:11:15;;;;;;;;;;;5.70;100.00;;;;;;5045001;28;20445;-67
2024/01/31 10:13:42;;;;;;;;;;;5.70;100.00;;;;;;5046893;28;19936;-67
2024/01/31 10:16:13;;;;;;;;;;;5.80;100.00;;;;;;5045749;28;20002;-67
2024/01/31 10:18:40;;;;;;;;;;;5.90;100.00;;;;;;5046412;28;19935;-68
2024/01/31 10:21:08;;;;;;;;;;;6.00;100.00;;;;;;5046324;28;19975;-67
2024/01/31 10:23:35;;;;;;;;;;;6.10;100.00;;;;;;5046814;28;19932;-68
2024/01/31 10:26:02;;;;;;;;;;;6.10;100.00;;;;;;5046017;28;19936;-67
2024/01/31 10:28:31;;;;;;;;;;;6.20;100.00;;;;;;5043860;28;19929;-67
2024/01/31 10:30:58;;;;;;;;;;;6.20;100.00;;;;;;5045257;28;19932;-67
2024/01/31 10:33:25;;;;;;;;;;;6.30;100.00;;;;;;5073655;28;20505;-67
2024/01/31 10:35:52;;;;;;;;;;;6.30;100.00;;;;;;5042939;28;19939;-68
2024/01/31 10:38:22;;;;;;;;;;;6.50;100.00;;;;;;5041995;28;19978;-68
2024/01/31 10:40:49;;;;;;;;;;;6.40;100.00;;;;;;5075102;28;19934;-68
2024/01/31 10:43:17;;;;;;;;;;;6.40;100.00;;;;;;5043341;28;19928;-68
2024/01/31 10:45:44;;;;;;;;;;;6.50;100.00;;;;;;5043268;28;19936;-67
2024/01/31 10:48:11;;;;;;;;;;;6.30;100.00;;;;;;5044738;28;19935;-67
2024/01/31 10:50:38;;;;;;;;;;;6.30;100.00;;;;;;5040973;28;19929;-67
2024/01/31 10:53:06;;;;;;;;;;;6.50;100.00;;;;;;5044186;28;19935;-67
2024/01/31 10:55:33;;;;;;;;;;;7.00;100.00;;;;;;5042868;28;19932;-67
2024/01/31 10:58:01;;;;;;;;;;;7.10;100.00;;;;;;5044067;28;20020;-67
2024/01/31 11:00:32;;;;;;;;;;;7.00;100.00;;;;;;5045307;28;19929;-67
2024/01/31 11:03:00;;;;;;;;;;;7.00;100.00;;;;;;5045454;28;19928;-67
2024/01/31 11:05:28;;;;;;;;;;;7.70;100.00;;;;;;5045666;28;20446;-67
2024/01/31 11:07:58;;;;;;;;;;;8.50;100.00;;;;;;5044123;28;19964;-67
2024/01/31 11:10:27;;;;;;;;;;;8.80;100.00;;;;;;5044077;28;19929;-70
2024/01/31 11:13:02;;;;;;;;;;;8.30;100.00;;;;;;5045974;28;19936;-70
2024/01/31 11:15:29;;;;;;;;;;;7.90;100.00;;;;;;5045107;28;19936;-71
2024/01/31 11:18:05;;;;;;;;;;;7.60;100.00;;;;;;5044322;28;19928;-71
2024/01/31 11:20:34;;;;;;;;;;;7.90;100.00;;;;;;5045048;28;20441;-70
2024/01/31 11:23:03;;;;;;;;;;;8.00;100.00;;;;;;5043349;28;19929;-71
2024/01/31 11:25:37;;;;;;;;;;;8.10;100.00;;;;;;5042793;28;20019;-70
2024/01/31 11:28:04;;;;;;;;;;;8.20;100.00;;;;;;5044400;28;20510;-70
2024/01/31 11:30:31;;;;;;;;;;;8.20;100.00;;;;;;5044733;28;20733;-70
2024/01/31 11:33:01;;;;;;;;;;;8.30;100.00;;;;;;5044451;28;19932;-70
2024/01/31 11:35:29;;;;;;;;;;;8.30;100.00;;;;;;5043675;28;19925;-70
2024/01/31 11:37:57;;;;;;;;;;;8.50;100.00;;;;;;5042942;28;19932;-70
2024/01/31 11:40:24;;;;;;;;;;;8.70;100.00;;;;;;5043782;28;19956;-70
2024/01/31 11:42:52;;;;;;;;;;;8.50;100.00;;;;;;5044850;28;20381;-70
2024/01/31 11:45:19;;;;;;;;;;;8.50;100.00;;;;;;5045086;28;19971;-70
2024/01/31 11:47:47;;;;;;;;;;;8.50;100.00;;;;;;5044684;28;20379;-70
2024/01/31 11:50:14;;;;;;;;;;;8.70;100.00;;;;;;5044591;28;20389;-69
2024/01/31 11:52:41;;;;;;;;;;;8.70;100.00;;;;;;5045207;28;20467;-69
2024/01/31 11:55:11;;;;;;;;;;;8.60;100.00;;;;;;5043371;28;19931;-69
2024/01/31 11:57:38;;;;;;;;;;;8.60;100.00;;;;;;5044882;28;20341;-70
2024/01/31 12:00:05;;;;;;;;;;;8.90;100.00;;;;;;5043058;28;20055;-70
2024/01/31 12:02:32;;;;;;;;;;;9.10;100.00;;;;;;5043399;28;19963;-70
2024/01/31 12:04:59;;;;;;;;;;;8.90;100.00;;;;;;5044678;28;20015;-70
2024/01/31 12:07:28;;;;;;;;;;;8.70;100.00;;;;;;5069811;28;19964;-70
2024/01/31 12:09:55;;;;;;;;;;;8.60;100.00;;;;;;5044044;28;19929;-70
2024/01/31 12:12:22;;;;;;;;;;;8.70;100.00;;;;;;5043745;28;19934;-70
2024/01/31 12:14:49;;;;;;;;;;;8.70;100.00;;;;;;5044485;28;20526;-70
2024/01/31 12:17:19;;;;;;;;;;;8.60;100.00;;;;;;5043078;28;19929;-70
2024/01/31 12:19:45;;;;;;;;;;;8.10;100.00;;;;;;5042699;28;19929;-70
2024/01/31 12:22:12;;;;;;;;;;;7.70;100.00;;;;;;5044514;28;20026;-70
2024/01/31 12:24:39;;;;;;;;;;;7.60;100.00;;;;;;5041557;28;19982;-70
2024/01/31 12:27:06;;;;;;;;;;;7.40;100.00;;;;;;5044666;28;19929;-70
2024/01/31 12:29:33;;;;;;;;;;;7.10;100.00;;;;;;5044633;28;19935;-70
2024/01/31 12:32:02;;;;;;;;;;;6.90;100.00;;;;;;5044295;28;19928;-70
2024/01/31 12:34:29;;;;;;;;;;;6.80;100.00;;;;;;5044608;28;20549;-70
2024/01/31 12:36:55;;;;;;;;;;;6.70;100.00;;;;;;5044229;28;20007;-70
2024/01/31 12:39:22;;;;;;;;;;;6.60;100.00;;;;;;5042935;28;19987;-70
2024/01/31 12:41:52;;;;;;;;;;;6.60;100.00;;;;;;5044425;28;19964;-70
2024/01/31 12:44:19;;;;;;;;;;;6.60;100.00;;;;;;5044324;28;19979;-70
2024/01/31 12:46:46;;;;;;;;;;;6.80;100.00;;;;;;5043603;28;19976;-70
2024/01/31 12:49:13;;;;;;;;;;;6.90;100.00;;;;;;5042878;28;19940;-70
2024/01/31 12:51:40;;;;;;;;;;;6.80;100.00;;;;;;5043463;28;20515;-70
2024/01/31 12:54:07;;;;;;;;;;;6.60;100.00;;;;;;5042918;28;19987;-70
2024/01/31 12:56:38;;;;;;;;;;;6.50;100.00;;;;;;5040801;28;19935;-69
2024/01/31 12:59:05;;;;;;;;;;;6.30;100.00;;;;;;5044505;28;20038;-70
2024/01/31 13:01:31;;;;;;;;;;;6.60;100.00;;;;;;5042772;28;20552;-70
2024/01/31 13:03:58;;;;;;;;;;;7.00;100.00;;;;;;5043874;28;19928;-70
2024/01/31 13:06:26;;;;;;;;;;;6.90;100.00;;;;;;5043868;28;20289;-70
2024/01/31 13:08:53;;;;;;;;;;;6.90;100.00;;;;;;5042244;28;19935;-70
2024/01/31 13:11:22;;;;;;;;;;;6.90;100.00;;;;;;5043375;28;22157;-70
2024/01/31 13:13:50;;;;;;;;;;;7.70;100.00;;;;;;5042665;28;19928;-70
2024/01/31 13:16:17;;;;;;;;;;;10.40;100.00;;;;;;5043982;28;20019;-70
2024/01/31 13:18:43;;;;;;;;;;;12.30;90.90;;;;;;5042673;28;19932;-70
2024/01/31 13:21:11;;;;;;;;;;;13.50;79.50;;;;;;5044271;28;19974;-70
2024/01/31 13:23:39;;;;;;;;;;;14.40;73.20;;;;;;5044049;28;19932;-70
2024/01/31 13:26:07;;;;;;;;;;;15.50;69.30;;;;;;5044171;28;19929;-70
2024/01/31 13:28:34;;;;;;;;;;;15.40;65.40;;;;;;5044699;28;19956;-71
2024/01/31 13:31:00;;;;;;;;;;;15.20;65.10;;;;;;5042390;28;19929;-70
2024/01/31 13:33:27;;;;;;;;;;;14.00;63.10;;;;;;5044428;28;19935;-71
2024/01/31 13:35:55;;;;;;;;;;;12.40;73.00;;;;;;5044162;28;19932;-71
2024/01/31 13:38:22;;;;;;;;;;;11.80;73.80;;;;;;5047866;28;20009;-70
2024/01/31 13:40:49;;;;;;;;;;;11.10;75.20;;;;;;5048574;28;20020;-70
2024/01/31 13:43:16;;;;;;;;;;;10.30;82.40;;;;;;5048934;28;20006;-71
2024/01/31 13:45:42;;;;;;;;;;;9.60;83.10;;;;;;5047357;28;19936;-70
2024/01/31 13:48:09;;;;;;;;;;;9.20;86.00;;;;;;5048461;28;19929;-70
2024/01/31 13:50:38;;;;;;;;;;;8.70;93.50;;;;;;5047794;28;19931;-70
2024/01/31 13:53:04;;;;;;;;;;;8.30;92.10;;;;;;5047776;28;19940;-71
2024/01/31 13:55:31;;;;;;;;;;;7.90;96.70;;;;;;5046593;28;19964;-70
2024/01/31 13:57:58;;;;;;;;;;;7.60;100.00;;;;;;5046137;28;19928;-70
2024/01/31 14:00:25;;;;;;;;;;;7.20;100.00;;;;;;5047803;28;19933;-71
2024/01/31 14:02:52;;;;;;;;;;;7.00;100.00;;;;;;5046314;28;19933;-71
2024/01/31 14:05:18;;;;;;;;;;;6.80;100.00;;;;;;5041543;28;20273;-70
2024/01/31 14:07:45;;;;;;;;;;;6.60;100.00;;;;;;5039084;28;20370;-71
2024/01/31 14:10:12;;;;;;;;;;;6.50;100.00;;;;;;5039641;28;20010;-72
2024/01/31 14:12:38;;;;;;;;;;;6.40;100.00;;;;;;5045816;28;19987;-70
2024/01/31 14:15:06;;;;;;;;;;;6.30;100.00;;;;;;5045682;28;19972;-72
2024/01/31 14:17:32;;;;;;;;;;;6.20;100.00;;;;;;5046920;28;19929;-71